TimeCST,TemperatureF,Dew PointF,Humidity,Sea Level PressureIn,VisibilityMPH,Wind Direction,Wind SpeedMPH,Gust SpeedMPH,PrecipitationIn,Events,Conditions,WindDirDegrees,DateUTC
12:15 AM,23.4,16.0,73,30.22,10.0,Calm,Calm,-,N/A,,Clear,0,2013-01-03 06:15:00
12:35 AM,23.7,16.0,72,30.21,10.0,South,3.5,-,N/A,,Clear,170,2013-01-03 06:35:00
12:55 AM,24.3,16.5,72,30.21,10.0,South,3.5,-,N/A,,Clear,180,2013-01-03 06:55:00
1:15 AM,23.7,16.2,73,30.21,10.0,South,3.5,-,N/A,,Clear,180,2013-01-03 07:15:00
1:35 AM,22.6,16.3,77,30.21,10.0,Calm,Calm,-,N/A,,Scattered Clouds,0,2013-01-03 07:35:00
1:55 AM,21.9,16.0,78,30.22,10.0,Calm,Calm,-,N/A,,Scattered Clouds,0,2013-01-03 07:55:00
2:15 AM,22.1,16.7,80,30.23,10.0,Calm,Calm,-,N/A,,Clear,0,2013-01-03 08:15:00
2:35 AM,22.1,16.2,78,30.23,10.0,SW,5.8,-,N/A,,Clear,230,2013-01-03 08:35:00
2:55 AM,20.8,16.0,81,30.24,7.0,WSW,5.8,-,N/A,,Scattered Clouds,250,2013-01-03 08:55:00
3:15 AM,22.3,17.2,81,30.25,10.0,WSW,3.5,-,N/A,,Clear,240,2013-01-03 09:15:00
3:35 AM,22.1,16.7,80,30.24,10.0,WSW,4.6,-,N/A,,Clear,250,2013-01-03 09:35:00
3:55 AM,20.3,15.8,83,30.24,10.0,West,4.6,-,N/A,,Scattered Clouds,260,2013-01-03 09:55:00
4:15 AM,20.5,16.0,83,30.24,10.0,West,4.6,-,N/A,,Clear,270,2013-01-03 10:15:00
4:35 AM,22.6,18.5,84,30.24,10.0,WNW,4.6,-,N/A,,Clear,300,2013-01-03 10:35:00
4:55 AM,22.1,17.6,83,30.25,10.0,Calm,Calm,-,N/A,,Clear,0,2013-01-03 10:55:00
5:15 AM,22.6,18.3,83,30.25,10.0,Calm,Calm,-,N/A,,Clear,0,2013-01-03 11:15:00
5:35 AM,23.7,19.0,82,30.26,10.0,WSW,4.6,-,N/A,,Clear,240,2013-01-03 11:35:00
5:55 AM,21.2,16.9,83,30.26,10.0,WSW,3.5,-,N/A,,Clear,250,2013-01-03 11:55:00
10:50 AM,33.8,26.6,75,30.35,10.0,WSW,8.1,-,N/A,,Clear,250,2013-01-03 16:50:00
1:55 PM,41.0,26.6,57,30.31,10.0,West,13.8,-,N/A,,Partly Cloudy,270,2013-01-03 19:55:00
2:45 PM,41.0,26.6,57,30.32,10.0,WNW,18.4,-,N/A,,Mostly Cloudy,290,2013-01-03 20:45:00
3:45 PM,39.2,24.8,56,30.34,10.0,WNW,11.5,-,N/A,,Mostly Cloudy,290,2013-01-03 21:45:00
4:45 PM,37.4,23.0,56,30.35,10.0,West,11.5,-,N/A,,Partly Cloudy,280,2013-01-03 22:45:00
5:45 PM,33.8,23.0,65,30.36,10.0,West,6.9,-,N/A,,Clear,270,2013-01-03 23:45:00
6:45 PM,35.6,26.6,70,30.37,10.0,West,6.9,-,N/A,,Clear,270,2013-01-04 00:45:00
7:45 PM,35.6,26.6,70,30.38,10.0,West,6.9,-,N/A,,Overcast,280,2013-01-04 01:45:00
8:48 PM,35.6,28.4,75,30.38,10.0,West,6.9,-,N/A,,Overcast,260,2013-01-04 02:48:00
9:15 PM,36.0,27.7,72,30.39,10.0,WSW,5.8,-,N/A,,Overcast,250,2013-01-04 03:15:00
9:35 PM,36.0,28.0,73,30.39,10.0,West,5.8,-,N/A,,Overcast,270,2013-01-04 03:35:00
9:45 PM,35.6,28.4,75,30.39,10.0,West,6.9,-,N/A,,Overcast,280,2013-01-04 03:45:00
9:55 PM,36.0,27.9,72,30.39,10.0,West,6.9,-,N/A,,Overcast,260,2013-01-04 03:55:00
10:15 PM,35.2,27.3,73,30.39,10.0,West,6.9,-,N/A,,Overcast,270,2013-01-04 04:15:00
10:35 PM,33.8,26.6,75,30.38,10.0,West,5.8,-,N/A,,Mostly Cloudy,270,2013-01-04 04:35:00
10:55 PM,32.0,25.7,78,30.39,10.0,West,6.9,-,N/A,,Scattered Clouds,260,2013-01-04 04:55:00
11:15 PM,32.0,25.5,77,30.39,10.0,West,8.1,-,N/A,,Clear,260,2013-01-04 05:15:00
11:35 PM,31.6,25.5,78,30.39,10.0,WSW,6.9,-,N/A,,Clear,250,2013-01-04 05:35:00
11:55 PM,31.1,25.7,80,30.38,10.0,WSW,6.9,-,N/A,,Clear,240,2013-01-04 05:55:00